Yakutsk, Russia
Current Conditions -  °F | °C
As of 6:30 AM on Wednesday 22 Oct 2014 (Local Time) from UEEE Reporting Station
Broken Clouds Broken Clouds  
Wind Chill:   Ceiling: 10000
Heat Index:   Visibility: 6mi
Dew Point:   Wind: 4mph
Humidity: 92%   Direction: 80°E
Pressure: 29.38"   Gusts: NA
Location:  62.05°N, 129.73°E
Report Text: UEEE 212130Z 08002MPS 9999 SCT033CB BKN100 M13/M14 Q0995 NOSIGRMK QFE738 23490245
Loading
Personal Weather Stations






























Interactive Weather Map
Tropical Storm Tracking
New forecast layout! Learn more

10-Day Weather Forecast

Advertisements
Track Severe Weather on mobile